Time;durP1;ratioP1;P1;durP2;ratioP2;P2;SDS_P1;SDS_P2;PMS_P1;PMS_P2;Temp;Humidity;BMP_temperature;BMP_pressure;BME280_temperature;BME280_humidity;BME280_pressure;Samples;Min_cycle;Max_cycle;Signal;HPM_P1;HPM_P2
2021/06/14 00:00:17;;;;;;;6.50;4.23;;;23.40;46.50;;;;;;4980290;28;20489;-75
2021/06/14 00:02:46;;;;;;;8.50;4.03;;;23.40;46.60;;;;;;4985020;28;20432;-76
2021/06/14 00:05:15;;;;;;;5.70;4.00;;;23.40;46.70;;;;;;4984655;28;20435;-75
2021/06/14 00:07:43;;;;;;;7.80;4.50;;;23.20;46.80;;;;;;4991026;28;20454;-75
2021/06/14 00:10:13;;;;;;;7.03;4.23;;;23.30;46.80;;;;;;5000686;28;20450;-75
2021/06/14 00:12:42;;;;;;;7.33;4.50;;;23.30;47.30;;;;;;5002283;28;20432;-75
2021/06/14 00:15:11;;;;;;;6.87;4.10;;;23.40;46.90;;;;;;5003290;28;20403;-75
2021/06/14 00:17:40;;;;;;;13.57;5.00;;;23.40;46.80;;;;;;5006073;28;20467;-76
2021/06/14 00:20:11;;;;;;;6.70;4.77;;;23.30;46.80;;;;;;5001242;28;20472;-75
2021/06/14 00:22:39;;;;;;;6.53;4.43;;;23.30;47.00;;;;;;4994677;28;20447;-75
2021/06/14 00:25:08;;;;;;;7.50;4.00;;;23.30;47.30;;;;;;5004802;28;20439;-75
2021/06/14 00:27:36;;;;;;;8.53;4.43;;;23.30;46.90;;;;;;4998154;28;20463;-75
2021/06/14 00:30:05;;;;;;;5.60;4.63;;;23.30;46.90;;;;;;4998387;28;20428;-75
2021/06/14 00:32:33;;;;;;;6.73;4.47;;;23.30;47.10;;;;;;4996493;28;20437;-75
2021/06/14 00:35:01;;;;;;;7.07;4.17;;;23.20;47.60;;;;;;5003543;28;20430;-75
2021/06/14 00:37:30;;;;;;;7.37;5.00;;;23.10;47.30;;;;;;4999535;28;20469;-75
2021/06/14 00:39:59;;;;;;;5.57;4.73;;;23.00;47.30;;;;;;4999549;28;20492;-75
2021/06/14 00:42:27;;;;;;;6.90;4.50;;;23.00;47.90;;;;;;4999675;28;20524;-75
2021/06/14 00:44:54;;;;;;;5.53;3.87;;;23.00;48.10;;;;;;4997718;28;20528;-75
2021/06/14 00:47:22;;;;;;;5.80;4.20;;;22.90;47.70;;;;;;5003250;28;20433;-75
2021/06/14 00:49:50;;;;;;;9.40;4.60;;;22.90;47.60;;;;;;4997394;28;20517;-75
2021/06/14 00:52:18;;;;;;;7.70;4.30;;;22.90;47.90;;;;;;4998779;28;20429;-75
2021/06/14 00:54:47;;;;;;;8.57;4.40;;;22.90;47.80;;;;;;5000325;28;20470;-75
2021/06/14 00:57:15;;;;;;;5.03;3.63;;;22.90;47.70;;;;;;5002957;28;20409;-75
2021/06/14 00:59:43;;;;;;;10.80;4.80;;;22.90;47.50;;;;;;4995368;28;20460;-75
2021/06/14 01:02:11;;;;;;;7.60;4.40;;;22.90;47.40;;;;;;5001959;28;20433;-75
2021/06/14 01:04:39;;;;;;;8.93;4.70;;;22.90;47.30;;;;;;5005065;28;20529;-75
2021/06/14 01:07:07;;;;;;;7.57;4.30;;;22.90;47.50;;;;;;4999651;28;20433;-75
2021/06/14 01:09:35;;;;;;;9.87;4.30;;;22.90;47.10;;;;;;4996926;28;20433;-75
2021/06/14 01:12:07;;;;;;;5.10;4.27;;;22.80;47.20;;;;;;5002044;28;20440;-75
2021/06/14 01:14:38;;;;;;;7.00;4.50;;;22.80;47.20;;;;;;4997479;28;20457;-75
2021/06/14 01:17:09;;;;;;;7.50;4.40;;;22.80;47.30;;;;;;5002078;28;20422;-75
2021/06/14 01:20:04;;;;;;;9.20;4.77;;;22.80;47.20;;;;;;4998242;28;20448;-75
2021/06/14 01:23:08;;;;;;;6.03;4.47;;;22.70;47.10;;;;;;5001431;28;20408;-75
2021/06/14 01:25:42;;;;;;;5.40;3.83;;;22.70;47.30;;;;;;4989439;28;20473;-75
2021/06/14 01:28:13;;;;;;;7.80;4.80;;;22.80;47.00;;;;;;4994722;28;20439;-75
2021/06/14 01:30:41;;;;;;;6.50;4.50;;;22.80;46.80;;;;;;4985013;28;20489;-75
2021/06/14 01:33:10;;;;;;;9.30;4.23;;;22.70;46.60;;;;;;4989388;28;20445;-75
2021/06/14 01:35:41;;;;;;;7.27;5.00;;;22.60;47.00;;;;;;4988502;28;20540;-75
2021/06/14 01:38:09;;;;;;;5.60;4.50;;;22.70;47.10;;;;;;4988850;28;20516;-75
2021/06/14 01:40:38;;;;;;;8.40;4.67;;;22.60;47.10;;;;;;4990224;28;20480;-75
2021/06/14 01:43:08;;;;;;;5.13;3.80;;;22.60;47.00;;;;;;4989996;28;20412;-75
2021/06/14 01:45:39;;;;;;;8.27;5.43;;;22.60;47.00;;;;;;4990450;28;20481;-75
2021/06/14 01:48:09;;;;;;;4.63;4.20;;;22.50;47.00;;;;;;4989929;28;20437;-75
2021/06/14 01:50:37;;;;;;;14.53;9.17;;;22.50;46.90;;;;;;4990600;28;20468;-75
2021/06/14 01:53:04;;;;;;;33.37;18.43;;;22.50;46.90;;;;;;4989982;28;20451;-75
2021/06/14 01:55:33;;;;;;;19.30;11.73;;;22.40;46.80;;;;;;4989861;28;20469;-75
2021/06/14 01:58:01;;;;;;;15.57;9.17;;;22.40;46.90;;;;;;4989822;28;20449;-75
2021/06/14 02:00:30;;;;;;;12.50;7.97;;;22.60;46.10;;;;;;4990146;28;20502;-75
2021/06/14 02:02:59;;;;;;;11.93;6.90;;;22.50;46.30;;;;;;4989856;28;20541;-81
2021/06/14 02:05:28;;;;;;;8.87;5.43;;;22.30;46.30;;;;;;4986924;28;20453;-81
2021/06/14 02:07:56;;;;;;;7.97;5.10;;;22.20;46.80;;;;;;4988036;28;20526;-81
2021/06/14 02:10:24;;;;;;;9.40;5.60;;;22.00;46.80;;;;;;4989568;28;20557;-80
2021/06/14 02:12:52;;;;;;;9.87;5.50;;;22.00;47.20;;;;;;4989194;28;20437;-81
2021/06/14 02:15:21;;;;;;;8.47;5.00;;;22.00;46.80;;;;;;4988830;28;20535;-81
2021/06/14 02:17:49;;;;;;;11.20;4.43;;;22.10;47.10;;;;;;4989522;28;20537;-81
2021/06/14 02:20:18;;;;;;;7.53;5.00;;;21.90;46.70;;;;;;4989435;28;20569;-81
2021/06/14 02:22:46;;;;;;;8.50;4.87;;;22.00;47.20;;;;;;4989148;28;20473;-81
2021/06/14 02:25:15;;;;;;;15.93;6.20;;;22.10;46.90;;;;;;4989247;28;20504;-81
2021/06/14 02:27:43;;;;;;;9.53;4.90;;;22.20;46.60;;;;;;4990190;28;20492;-81
2021/06/14 02:30:12;;;;;;;9.67;5.13;;;22.10;46.20;;;;;;4989282;28;20416;-81
2021/06/14 02:32:40;;;;;;;7.47;4.80;;;22.20;46.90;;;;;;4996562;28;20449;-81
2021/06/14 02:35:10;;;;;;;7.93;4.87;;;22.20;46.70;;;;;;4989934;28;20442;-81
2021/06/14 02:37:40;;;;;;;8.30;4.50;;;22.10;46.30;;;;;;4981244;28;20445;-81
2021/06/14 02:40:10;;;;;;;7.03;5.33;;;22.10;46.50;;;;;;4987073;28;20559;-81
2021/06/14 02:42:39;;;;;;;6.00;4.67;;;22.10;46.40;;;;;;4989039;28;20551;-81
2021/06/14 02:45:08;;;;;;;9.60;5.17;;;22.00;46.40;;;;;;4981872;28;20435;-81
2021/06/14 02:47:36;;;;;;;8.83;5.10;;;21.90;46.40;;;;;;4982121;28;20445;-81
2021/06/14 02:50:05;;;;;;;7.90;5.17;;;21.90;46.80;;;;;;4982689;28;20464;-81
2021/06/14 02:52:33;;;;;;;11.73;4.90;;;21.90;46.70;;;;;;4982870;28;20432;-81
2021/06/14 02:55:06;;;;;;;9.30;5.10;;;21.80;46.70;;;;;;5005854;28;20518;-80
2021/06/14 02:57:33;;;;;;;8.13;4.67;;;21.80;46.80;;;;;;5008370;28;20520;-81
2021/06/14 03:00:01;;;;;;;7.83;4.63;;;21.90;46.50;;;;;;5008463;28;20544;-80
2021/06/14 03:02:29;;;;;;;8.80;4.70;;;21.90;46.40;;;;;;5009002;28;20476;-81
2021/06/14 03:04:57;;;;;;;7.83;5.33;;;21.90;46.60;;;;;;5008923;28;20467;-81
2021/06/14 03:07:25;;;;;;;6.90;4.90;;;21.90;46.70;;;;;;5008787;28;20441;-81
2021/06/14 03:09:53;;;;;;;6.60;4.70;;;21.80;46.60;;;;;;5008932;28;20511;-80
2021/06/14 03:12:24;;;;;;;7.33;4.80;;;21.80;46.80;;;;;;4996383;28;20472;-81
2021/06/14 03:14:54;;;;;;;7.93;4.73;;;21.90;46.70;;;;;;4989926;28;20525;-80
2021/06/14 03:17:21;;;;;;;5.60;4.53;;;21.70;46.40;;;;;;4990078;28;20555;-81
2021/06/14 03:19:49;;;;;;;7.80;4.70;;;21.60;47.00;;;;;;4989646;28;20447;-81
2021/06/14 03:22:17;;;;;;;7.70;4.67;;;21.70;47.00;;;;;;4989626;28;20485;-81
2021/06/14 03:24:45;;;;;;;19.47;5.20;;;21.80;46.60;;;;;;4989604;28;20472;-81
2021/06/14 03:27:15;;;;;;;8.63;4.70;;;21.80;46.60;;;;;;4991414;28;20524;-81
2021/06/14 03:29:44;;;;;;;6.23;4.57;;;21.60;46.80;;;;;;4992702;28;20433;-81
2021/06/14 03:32:18;;;;;;;6.00;4.43;;;21.70;46.90;;;;;;4992501;28;20532;-81
2021/06/14 03:34:46;;;;;;;11.47;4.53;;;21.80;46.80;;;;;;4992613;28;20480;-81
2021/06/14 03:37:14;;;;;;;15.63;4.63;;;21.70;46.90;;;;;;4992971;28;20441;-81
2021/06/14 03:39:42;;;;;;;6.40;4.57;;;21.70;47.00;;;;;;4992559;28;20515;-81
2021/06/14 03:42:10;;;;;;;8.47;5.07;;;21.50;46.90;;;;;;4992245;28;20483;-81
2021/06/14 03:44:38;;;;;;;7.57;4.50;;;21.60;47.00;;;;;;4992506;28;20473;-81
2021/06/14 03:47:07;;;;;;;10.60;5.03;;;21.60;46.90;;;;;;4991902;28;20451;-81
2021/06/14 03:49:35;;;;;;;10.90;5.03;;;21.60;47.00;;;;;;4991980;28;20465;-81
2021/06/14 03:52:05;;;;;;;6.50;4.83;;;21.70;47.00;;;;;;4990397;28;20480;-81
2021/06/14 03:54:33;;;;;;;12.97;5.57;;;21.60;46.60;;;;;;4990066;28;20557;-81
2021/06/14 03:57:01;;;;;;;9.70;5.67;;;21.40;46.80;;;;;;4989684;28;20430;-81
2021/06/14 03:59:29;;;;;;;6.33;4.77;;;21.30;47.20;;;;;;4990250;28;20543;-81
2021/06/14 04:01:56;;;;;;;11.10;5.27;;;21.30;47.30;;;;;;4991299;28;20488;-81
2021/06/14 04:04:47;;;;;;;10.13;5.43;;;21.30;47.10;;;;;;5000702;28;20450;-81
2021/06/14 04:07:15;;;;;;;10.87;4.93;;;21.30;47.30;;;;;;4990518;28;20441;-81
2021/06/14 04:09:44;;;;;;;7.00;4.93;;;21.50;47.10;;;;;;4989572;28;20527;-81
2021/06/14 04:12:12;;;;;;;9.57;5.50;;;21.30;47.10;;;;;;4989685;28;20477;-81
2021/06/14 04:14:41;;;;;;;8.27;5.00;;;21.30;47.30;;;;;;4988620;28;20476;-81
2021/06/14 04:17:09;;;;;;;11.03;5.17;;;21.20;47.50;;;;;;4989656;28;20420;-81
2021/06/14 04:19:38;;;;;;;7.50;4.93;;;21.30;47.30;;;;;;4989137;28;20445;-81
2021/06/14 04:22:06;;;;;;;11.47;5.20;;;21.20;47.40;;;;;;4991006;28;20473;-81
2021/06/14 04:24:34;;;;;;;12.93;5.63;;;21.10;47.90;;;;;;4991743;28;20456;-81
2021/06/14 04:27:02;;;;;;;8.80;5.77;;;21.10;47.80;;;;;;4991740;28;20561;-81
2021/06/14 04:29:30;;;;;;;7.97;5.10;;;21.10;48.20;;;;;;4991337;28;20429;-81
2021/06/14 04:31:58;;;;;;;10.40;5.17;;;21.30;47.60;;;;;;4989382;28;20477;-81
2021/06/14 04:34:27;;;;;;;10.47;5.57;;;21.30;47.50;;;;;;4991667;28;20457;-81
2021/06/14 04:37:01;;;;;;;8.67;5.10;;;21.40;47.50;;;;;;4988137;28;20438;-81
2021/06/14 04:39:29;;;;;;;11.00;5.90;;;21.40;47.40;;;;;;4987912;28;20535;-81
2021/06/14 04:41:57;;;;;;;13.17;6.47;;;21.50;47.80;;;;;;4988458;28;20449;-81
2021/06/14 04:44:25;;;;;;;11.87;5.53;;;21.50;47.80;;;;;;4987969;28;20472;-81
2021/06/14 04:46:53;;;;;;;12.27;6.07;;;21.50;47.70;;;;;;4988400;28;20496;-81
2021/06/14 04:49:21;;;;;;;12.20;6.00;;;21.50;48.10;;;;;;4989964;28;20455;-81
2021/06/14 04:51:48;;;;;;;12.83;5.40;;;21.40;47.90;;;;;;4988188;28;20416;-81
2021/06/14 04:54:18;;;;;;;11.13;5.90;;;21.50;48.00;;;;;;4988596;28;20434;-81
2021/06/14 04:56:46;;;;;;;10.27;5.60;;;21.60;48.50;;;;;;4988388;28;20445;-81
2021/06/14 04:59:14;;;;;;;17.40;6.93;;;21.70;47.90;;;;;;4988268;28;20425;-81
2021/06/14 05:01:43;;;;;;;11.00;5.50;;;21.60;48.10;;;;;;4989765;28;20511;-81
2021/06/14 05:04:11;;;;;;;6.90;5.50;;;21.60;47.80;;;;;;4990832;28;20433;-81
2021/06/14 05:06:39;;;;;;;8.80;5.33;;;21.70;48.00;;;;;;4990747;28;20502;-81
2021/06/14 05:09:08;;;;;;;9.37;5.60;;;21.80;48.00;;;;;;4991202;28;20448;-80
2021/06/14 05:11:37;;;;;;;16.30;6.47;;;21.80;48.00;;;;;;4987976;28;20537;-81
2021/06/14 05:14:05;;;;;;;9.03;5.80;;;21.90;47.70;;;;;;4987752;28;20531;-81
2021/06/14 05:16:33;;;;;;;12.10;5.87;;;21.80;48.70;;;;;;4987821;28;20507;-81
2021/06/14 05:19:01;;;;;;;9.13;5.90;;;21.80;47.90;;;;;;4988243;28;20449;-81
2021/06/14 05:21:29;;;;;;;19.73;6.23;;;21.80;48.60;;;;;;4988313;28;20445;-81
2021/06/14 05:23:57;;;;;;;11.87;5.43;;;21.80;47.80;;;;;;4990588;28;20505;-81
2021/06/14 05:26:25;;;;;;;12.73;6.10;;;21.90;48.10;;;;;;4990764;28;20544;-80
2021/06/14 05:28:54;;;;;;;11.13;5.40;;;21.90;48.10;;;;;;4990454;28;20457;-81
2021/06/14 05:31:22;;;;;;;14.30;6.37;;;21.90;48.20;;;;;;4990925;28;20548;-80
2021/06/14 05:33:50;;;;;;;8.47;5.60;;;22.00;48.00;;;;;;4990515;28;20551;-80
2021/06/14 05:36:18;;;;;;;9.90;5.50;;;22.10;47.90;;;;;;4990455;28;20492;-81
2021/06/14 05:38:46;;;;;;;11.57;5.83;;;22.20;47.90;;;;;;4990611;28;20468;-80
2021/06/14 05:41:14;;;;;;;6.27;5.13;;;22.20;47.90;;;;;;4990034;28;20504;-80
2021/06/14 05:43:42;;;;;;;9.47;5.50;;;22.20;47.70;;;;;;4990273;28;20445;-80
2021/06/14 05:46:12;;;;;;;9.43;5.17;;;22.30;47.80;;;;;;4990104;28;20446;-80
2021/06/14 05:48:40;;;;;;;9.40;5.87;;;22.40;47.60;;;;;;4990297;28;20524;-80
2021/06/14 05:51:08;;;;;;;11.43;5.30;;;22.50;47.70;;;;;;4990176;28;20438;-80
2021/06/14 05:53:38;;;;;;;7.67;5.50;;;22.60;47.30;;;;;;4990123;28;20500;-80
2021/06/14 05:56:13;;;;;;;12.27;5.43;;;22.70;47.20;;;;;;4989990;28;20457;-76
2021/06/14 05:58:48;;;;;;;8.70;5.17;;;22.90;47.10;;;;;;4990438;28;20451;-77
2021/06/14 06:01:30;;;;;;;;;;;;;;;;;;;;;
2021/06/14 06:04:02;;;;;;;7.93;5.57;;;22.90;46.90;;;;;;4989425;28;20484;-77
2021/06/14 06:06:42;;;;;;;15.40;6.10;;;22.80;46.90;;;;;;4987903;28;20507;-77
2021/06/14 06:09:32;;;;;;;18.87;7.20;;;23.00;46.90;;;;;;4989502;28;20424;-74
2021/06/14 06:12:06;;;;;;;9.53;6.00;;;23.10;46.20;;;;;;4990084;28;20449;-80
2021/06/14 06:14:35;;;;;;;11.90;6.57;;;23.10;46.60;;;;;;4989826;28;20472;-76
2021/06/14 06:17:06;;;;;;;19.23;7.77;;;23.00;46.90;;;;;;4989202;28;20484;-77
2021/06/14 06:19:37;;;;;;;11.40;5.70;;;23.00;46.40;;;;;;4989593;28;20469;-76
2021/06/14 06:22:06;;;;;;;9.20;5.60;;;23.20;46.60;;;;;;4989368;28;20411;-74
2021/06/14 06:24:47;;;;;;;14.67;5.77;;;23.40;46.70;;;;;;4989578;28;20463;-74
2021/06/14 06:27:15;;;;;;;11.70;6.70;;;23.40;46.90;;;;;;4990091;28;20449;-74
2021/06/14 06:29:50;;;;;;;14.73;6.43;;;23.50;46.70;;;;;;4990236;28;20437;-80
2021/06/14 06:32:28;;;;;;;14.73;6.50;;;23.40;46.60;;;;;;4989537;28;20457;-77
2021/06/14 06:34:56;;;;;;;11.50;6.50;;;23.50;46.50;;;;;;4990125;28;20500;-77
2021/06/14 06:37:28;;;;;;;14.27;6.50;;;23.50;46.90;;;;;;4989450;28;20413;-81
2021/06/14 06:40:06;;;;;;;15.00;6.27;;;23.50;46.90;;;;;;4988757;28;20445;-81
2021/06/14 06:42:51;;;;;;;15.13;6.63;;;23.60;46.90;;;;;;4989280;28;20482;-77
2021/06/14 06:45:29;;;;;;;12.03;5.43;;;23.70;47.20;;;;;;4990065;28;20504;-77
2021/06/14 06:47:59;;;;;;;13.67;5.97;;;23.70;47.40;;;;;;4998881;28;20460;-80
2021/06/14 06:50:30;;;;;;;13.73;5.80;;;23.90;46.70;;;;;;4997691;28;20404;-80
2021/06/14 06:53:06;;;;;;;10.33;5.70;;;23.90;46.30;;;;;;5006041;28;20473;-81
2021/06/14 06:55:45;;;;;;;12.40;5.53;;;23.80;46.80;;;;;;4997118;28;20468;-81
2021/06/14 06:58:18;;;;;;;16.00;6.10;;;23.80;46.60;;;;;;5009189;28;20515;-81
2021/06/14 07:00:49;;;;;;;7.90;5.70;;;24.10;46.10;;;;;;5004139;28;20444;-80
2021/06/14 07:03:25;;;;;;;12.13;5.67;;;24.00;46.10;;;;;;5002577;28;20428;-80
2021/06/14 07:06:04;;;;;;;13.43;5.60;;;24.10;46.20;;;;;;4997522;28;20428;-81
2021/06/14 07:08:38;;;;;;;10.33;5.50;;;24.20;45.70;;;;;;5005057;28;20436;-81
2021/06/14 07:11:15;;;;;;;12.20;5.20;;;24.40;46.40;;;;;;5004468;28;20556;-81
2021/06/14 07:13:53;;;;;;;13.40;6.10;;;24.60;46.30;;;;;;5007562;28;20494;-77
2021/06/14 07:16:30;;;;;;;12.10;6.40;;;24.70;45.00;;;;;;5001867;28;20430;-77
2021/06/14 07:19:26;;;;;;;15.93;5.50;;;24.70;45.20;;;;;;5006697;28;20440;-81
2021/06/14 07:25:10;;;;;;;;;;;;;;;;;;;;;
2021/06/14 07:30:48;;;;;;;8.00;5.03;;;24.90;44.50;;;;;;4995499;28;20507;-77
2021/06/14 07:33:29;;;;;;;10.67;5.90;;;25.00;44.10;;;;;;4993095;28;20452;-77
2021/06/14 07:36:39;;;;;;;13.90;6.30;;;25.00;44.20;;;;;;4991783;28;20446;-75
2021/06/14 07:39:32;;;;;;;10.50;5.30;;;25.10;43.60;;;;;;4992676;28;20448;-76
2021/06/14 07:45:24;;;;;;;8.83;5.20;;;25.20;43.30;;;;;;4913681;29;20459;-75
2021/06/14 07:47:58;;;;;;;11.23;5.00;;;25.40;42.60;;;;;;4996943;28;20425;-75
2021/06/14 07:50:33;;;;;;;19.20;5.33;;;25.60;42.70;;;;;;5005900;28;20501;-77
2021/06/14 07:53:08;;;;;;;15.70;6.13;;;25.60;42.50;;;;;;4992181;28;20495;-77
2021/06/14 07:55:41;;;;;;;10.23;4.57;;;25.60;42.60;;;;;;5001705;28;20485;-77
2021/06/14 07:58:32;;;;;;;8.40;5.20;;;25.90;42.20;;;;;;5011994;28;20431;-76
2021/06/14 08:01:08;;;;;;;13.80;5.47;;;25.90;41.90;;;;;;5011771;28;20407;-77
2021/06/14 08:03:40;;;;;;;14.10;5.27;;;25.90;41.50;;;;;;5011494;28;20414;-76
2021/06/14 08:06:17;;;;;;;16.60;5.17;;;26.10;41.30;;;;;;5012350;28;20423;-76
2021/06/14 08:09:12;;;;;;;10.90;5.00;;;26.20;41.30;;;;;;4993637;28;20477;-75
2021/06/14 08:11:47;;;;;;;7.70;4.27;;;26.20;41.50;;;;;;4992268;28;20439;-75
2021/06/14 08:14:26;;;;;;;7.80;4.83;;;26.20;42.10;;;;;;4990440;28;20462;-77
2021/06/14 08:16:54;;;;;;;21.07;5.73;;;26.50;40.40;;;;;;4991695;28;20434;-75
2021/06/14 08:19:49;;;;;;;12.60;4.97;;;26.60;39.70;;;;;;4991308;28;20424;-80
2021/06/14 08:25:03;;;;;;;8.53;4.40;;;26.70;39.60;;;;;;5000301;28;20462;-81
2021/06/14 08:25:43;;;;;;;7.27;4.53;;;26.70;40.00;;;;;;4987289;28;21483;-80
2021/06/14 08:28:14;;;;;;;9.60;4.47;;;26.90;39.60;;;;;;4995913;28;20440;-77
2021/06/14 08:30:42;;;;;;;11.30;5.10;;;26.90;39.60;;;;;;5004556;28;20426;-80
2021/06/14 08:33:10;;;;;;;10.40;5.33;;;26.80;39.10;;;;;;4993582;28;20444;-77
2021/06/14 08:35:38;;;;;;;9.60;5.00;;;26.50;40.90;;;;;;5004744;28;20443;-80
2021/06/14 08:38:06;;;;;;;8.83;5.10;;;26.20;40.40;;;;;;4998309;28;20478;-79
2021/06/14 08:40:38;;;;;;;10.53;4.30;;;26.00;41.10;;;;;;4995923;28;20465;-84
2021/06/14 08:43:08;;;;;;;13.70;4.53;;;25.90;40.80;;;;;;4998587;28;20451;-78
2021/06/14 08:45:37;;;;;;;9.03;4.63;;;25.70;40.40;;;;;;5001297;28;20406;-78
2021/06/14 08:48:12;;;;;;;11.27;4.50;;;25.60;40.10;;;;;;5001849;28;20487;-78
2021/06/14 08:50:40;;;;;;;9.90;4.53;;;25.30;40.80;;;;;;4999359;28;20408;-78
2021/06/14 08:53:11;;;;;;;8.17;4.33;;;25.10;41.40;;;;;;5002351;28;20440;-78
2021/06/14 08:56:00;;;;;;;9.63;3.80;;;25.40;41.20;;;;;;5007775;28;20529;-86
2021/06/14 08:58:40;;;;;;;9.53;4.50;;;25.80;40.10;;;;;;4997530;28;20423;-78
2021/06/14 09:01:12;;;;;;;9.03;4.47;;;26.20;40.40;;;;;;5002298;28;20441;-77
2021/06/14 09:03:41;;;;;;;9.00;4.40;;;26.60;40.20;;;;;;4998980;28;20427;-78
2021/06/14 09:06:13;;;;;;;12.80;4.47;;;26.40;39.20;;;;;;5000565;28;20427;-78
2021/06/14 09:08:54;;;;;;;12.87;3.80;;;26.20;39.60;;;;;;4999380;28;20418;-78
2021/06/14 09:11:22;;;;;;;9.10;4.37;;;26.30;39.50;;;;;;4998961;28;20428;-78
2021/06/14 09:13:55;;;;;;;9.00;3.93;;;26.30;39.00;;;;;;5000243;28;20443;-78
2021/06/14 09:16:24;;;;;;;13.70;4.30;;;26.20;39.10;;;;;;4995725;28;20456;-78
2021/06/14 09:18:55;;;;;;;11.77;4.10;;;26.20;39.20;;;;;;4991350;28;20549;-78
2021/06/14 09:21:30;;;;;;;6.57;3.83;;;26.20;39.10;;;;;;4990986;28;20504;-78
2021/06/14 09:24:01;;;;;;;10.50;4.00;;;26.10;39.60;;;;;;4990166;28;20480;-78
2021/06/14 09:26:41;;;;;;;7.60;3.90;;;26.60;39.50;;;;;;4999490;28;20472;-78
2021/06/14 09:32:17;;;;;;;9.03;3.67;;;26.80;38.60;;;;;;4988087;28;20460;-78
2021/06/14 09:34:55;;;;;;;5.83;3.37;;;27.40;37.70;;;;;;4990624;28;20443;-78
2021/06/14 09:37:30;;;;;;;11.93;4.23;;;27.60;37.60;;;;;;4997048;28;20449;-78
2021/06/14 09:40:00;;;;;;;5.10;3.43;;;27.60;37.60;;;;;;4976673;28;20449;-78
2021/06/14 09:42:51;;;;;;;6.33;3.77;;;27.80;37.00;;;;;;4984105;28;20565;-78
2021/06/14 09:45:33;;;;;;;4.87;3.20;;;27.60;36.90;;;;;;4988470;28;20430;-78
2021/06/14 09:48:19;;;;;;;8.30;4.50;;;27.70;37.40;;;;;;5001190;28;20540;-86
2021/06/14 09:50:48;;;;;;;7.13;3.33;;;27.70;36.50;;;;;;4983409;28;20438;-86
2021/06/14 09:53:18;;;;;;;7.93;3.20;;;27.70;37.10;;;;;;4977768;28;20488;-78
2021/06/14 09:55:49;;;;;;;5.70;3.50;;;27.50;37.30;;;;;;4971042;28;20448;-86
2021/06/14 09:58:21;;;;;;;7.40;4.20;;;27.90;36.70;;;;;;4971142;28;20436;-86
2021/06/14 10:00:57;;;;;;;5.80;3.20;;;28.00;36.80;;;;;;4975443;28;20456;-86
2021/06/14 10:03:29;;;;;;;3.40;3.10;;;28.20;37.30;;;;;;4981618;28;20483;-78
2021/06/14 10:05:59;;;;;;;8.50;4.07;;;28.30;37.10;;;;;;4982068;28;20444;-78
2021/06/14 10:08:32;;;;;;;9.83;3.40;;;28.50;36.80;;;;;;4982654;28;20404;-78
2021/06/14 10:11:23;;;;;;;;;;;;;;;;;;;;;
2021/06/14 10:14:07;;;;;;;4.53;3.40;;;28.70;36.70;;;;;;4981844;28;20436;-78
2021/06/14 10:16:43;;;;;;;5.43;3.67;;;29.30;36.90;;;;;;4985861;28;20465;-78
2021/06/14 10:19:26;;;;;;;5.17;3.77;;;29.40;35.40;;;;;;4986567;28;20422;-78
2021/06/14 10:21:55;;;;;;;7.00;3.20;;;29.60;35.50;;;;;;4996193;28;20445;-83
2021/06/14 10:24:23;;;;;;;4.17;3.50;;;29.70;35.20;;;;;;4988446;28;20446;-81
2021/06/14 10:26:53;;;;;;;5.10;3.40;;;29.10;34.60;;;;;;4987752;28;20449;-79
2021/06/14 10:29:22;;;;;;;7.60;3.93;;;29.10;35.20;;;;;;4989803;28;20433;-79
2021/06/14 10:31:59;;;;;;;5.00;3.70;;;28.80;35.10;;;;;;4989928;28;20464;-79
2021/06/14 10:34:39;;;;;;;7.93;3.10;;;28.60;35.80;;;;;;4990633;28;20455;-79
2021/06/14 10:37:07;;;;;;;9.33;4.00;;;29.20;35.90;;;;;;4989517;28;20441;-78
2021/06/14 10:39:35;;;;;;;7.23;3.43;;;29.60;35.30;;;;;;4997067;28;20499;-77
2021/06/14 10:42:06;;;;;;;4.93;3.20;;;29.60;35.00;;;;;;4999257;28;20433;-79
2021/06/14 10:44:34;;;;;;;4.87;3.63;;;29.70;35.20;;;;;;4975580;28;20430;-78
2021/06/14 10:47:09;;;;;;;4.93;3.97;;;29.50;35.40;;;;;;4980144;28;20448;-78
2021/06/14 10:49:39;;;;;;;5.17;3.60;;;29.50;35.00;;;;;;4974886;28;20504;-80
2021/06/14 10:52:08;;;;;;;12.10;3.30;;;29.40;35.40;;;;;;4970029;28;20475;-79
2021/06/14 10:54:40;;;;;;;7.43;3.20;;;29.50;34.90;;;;;;4969215;28;20538;-80
2021/06/14 10:57:09;;;;;;;13.30;3.23;;;29.60;34.90;;;;;;4969047;28;20482;-78
2021/06/14 10:59:38;;;;;;;3.43;3.13;;;29.60;34.50;;;;;;4972451;28;20517;-79
2021/06/14 11:02:06;;;;;;;4.30;3.20;;;29.90;34.90;;;;;;5004025;28;20506;-81
2021/06/14 11:04:38;;;;;;;3.50;3.20;;;30.00;34.30;;;;;;4998654;28;20439;-82
2021/06/14 11:07:11;;;;;;;4.70;3.70;;;29.90;34.70;;;;;;4991049;28;20445;-80
2021/06/14 11:10:17;;;;;;;6.77;3.73;;;29.60;34.70;;;;;;4987015;28;20469;-82
2021/06/14 11:12:46;;;;;;;3.93;3.30;;;29.70;35.20;;;;;;4971839;28;20472;-80
2021/06/14 11:15:15;;;;;;;2.50;2.27;;;30.40;34.60;;;;;;4971667;28;20472;-80
2021/06/14 11:17:43;;;;;;;3.33;3.03;;;30.80;34.00;;;;;;4995973;28;20445;-80
2021/06/14 11:20:14;;;;;;;10.33;3.10;;;31.00;33.60;;;;;;4988057;28;20441;-80
2021/06/14 11:22:43;;;;;;;6.50;3.13;;;31.30;33.80;;;;;;4987292;28;20480;-79
2021/06/14 11:25:18;;;;;;;6.57;2.80;;;31.30;33.60;;;;;;4990016;28;20504;-79
2021/06/14 11:27:46;;;;;;;3.27;2.97;;;31.10;32.90;;;;;;4972342;28;20476;-81
2021/06/14 11:30:15;;;;;;;3.23;2.93;;;30.60;33.30;;;;;;4970491;28;20441;-80
2021/06/14 11:32:43;;;;;;;3.17;2.97;;;29.90;34.10;;;;;;4992767;28;20511;-79
2021/06/14 11:35:13;;;;;;;5.00;3.30;;;30.40;34.00;;;;;;4999171;28;20503;-79
2021/06/14 11:37:42;;;;;;;3.13;2.77;;;30.70;33.70;;;;;;4993160;28;20445;-79
2021/06/14 11:40:11;;;;;;;3.87;2.60;;;31.20;33.40;;;;;;4989689;28;20461;-79
2021/06/14 11:42:46;;;;;;;5.43;3.20;;;31.20;33.40;;;;;;4989014;28;20440;-79
2021/06/14 11:45:25;;;;;;;3.53;2.83;;;31.40;32.70;;;;;;4989499;28;20445;-79
2021/06/14 11:47:53;;;;;;;3.97;3.17;;;31.20;32.60;;;;;;4991381;28;20441;-79
2021/06/14 11:50:23;;;;;;;3.67;2.80;;;31.30;32.10;;;;;;4992598;28;20442;-79
2021/06/14 11:52:59;;;;;;;5.30;4.50;;;31.30;32.50;;;;;;4989853;28;20450;-79
2021/06/14 11:55:27;;;;;;;2.90;2.70;;;31.50;32.50;;;;;;5011903;28;20459;-79
2021/06/14 11:57:56;;;;;;;3.03;2.70;;;31.40;32.70;;;;;;5012594;28;20526;-80
2021/06/14 12:00:28;;;;;;;4.07;2.80;;;31.60;32.20;;;;;;5010286;28;20452;-79
2021/06/14 12:02:56;;;;;;;4.90;2.40;;;31.70;32.10;;;;;;5011502;28;20468;-79
2021/06/14 12:05:33;;;;;;;2.47;2.27;;;31.90;31.60;;;;;;4996823;28;20441;-79
2021/06/14 12:08:01;;;;;;;5.10;2.90;;;31.70;31.90;;;;;;4992785;28;20441;-79
2021/06/14 12:10:29;;;;;;;3.27;2.50;;;31.90;31.50;;;;;;4992642;28;20452;-79
2021/06/14 12:13:04;;;;;;;3.07;2.70;;;32.10;31.70;;;;;;4991881;28;20476;-79
2021/06/14 12:15:32;;;;;;;2.77;2.47;;;32.20;31.40;;;;;;4992214;28;20442;-79
2021/06/14 12:18:00;;;;;;;3.43;2.63;;;32.10;31.60;;;;;;4992386;28;20437;-79
2021/06/14 12:20:31;;;;;;;2.60;2.40;;;32.10;31.60;;;;;;4992138;28;20445;-78
2021/06/14 12:23:01;;;;;;;2.50;2.33;;;32.40;31.30;;;;;;4992661;28;20548;-77
2021/06/14 12:25:29;;;;;;;4.43;2.13;;;32.50;30.30;;;;;;4997682;28;20445;-77
2021/06/14 12:28:01;;;;;;;3.90;2.37;;;32.70;29.70;;;;;;4988432;28;20472;-76
2021/06/14 12:30:32;;;;;;;5.03;2.93;;;32.70;30.40;;;;;;4993078;28;20447;-76
2021/06/14 12:33:00;;;;;;;3.10;2.50;;;32.80;29.90;;;;;;5010505;28;20462;-75
2021/06/14 12:35:29;;;;;;;3.90;2.23;;;32.80;30.00;;;;;;4997808;28;20476;-77
2021/06/14 12:37:57;;;;;;;2.73;2.47;;;32.80;30.50;;;;;;4990821;28;20472;-77
2021/06/14 12:40:29;;;;;;;3.57;2.20;;;32.80;30.60;;;;;;4990774;28;20505;-76
2021/06/14 12:42:58;;;;;;;5.00;2.50;;;33.00;30.20;;;;;;4991068;28;20460;-78
2021/06/14 12:45:26;;;;;;;2.17;2.07;;;33.00;29.90;;;;;;4991736;28;20507;-75
2021/06/14 12:47:58;;;;;;;3.00;2.40;;;32.90;31.10;;;;;;4976676;28;20542;-76
2021/06/14 12:50:27;;;;;;;2.70;2.23;;;33.00;30.00;;;;;;4972260;28;20450;-75
2021/06/14 12:52:55;;;;;;;3.23;2.10;;;32.70;30.10;;;;;;4972448;28;20486;-76
2021/06/14 12:55:26;;;;;;;1.90;1.80;;;32.80;30.50;;;;;;4972421;28;20454;-76
2021/06/14 12:57:56;;;;;;;2.93;2.40;;;32.90;30.50;;;;;;4997642;28;20499;-74
2021/06/14 13:00:26;;;;;;;3.23;2.20;;;33.00;30.00;;;;;;5004267;28;20519;-74
2021/06/14 13:02:54;;;;;;;2.77;2.27;;;32.70;29.90;;;;;;5002562;28;20499;-75
2021/06/14 13:05:24;;;;;;;7.90;2.93;;;32.80;30.70;;;;;;4999433;28;20477;-75
2021/06/14 13:07:57;;;;;;;2.40;2.30;;;32.90;29.70;;;;;;4991369;28;20518;-79
2021/06/14 13:10:29;;;;;;;3.63;2.30;;;33.00;29.80;;;;;;4978807;28;20504;-78
2021/06/14 13:12:57;;;;;;;3.00;2.30;;;32.80;30.70;;;;;;4985892;28;20476;-77
2021/06/14 13:15:29;;;;;;;2.27;2.07;;;32.70;30.90;;;;;;4981050;28;20465;-78
2021/06/14 13:17:57;;;;;;;5.33;2.73;;;32.60;31.30;;;;;;4990238;28;20432;-77
2021/06/14 13:20:33;;;;;;;2.80;2.50;;;32.60;31.20;;;;;;4990309;28;20462;-75
2021/06/14 13:23:08;;;;;;;2.70;2.37;;;32.60;31.60;;;;;;4986198;28;20444;-77